sensor_id;sensor_type;location;lat;lon;timestamp;P1;durP1;ratioP1;P2;durP2;ratioP2
19643;SDS011;9970;-36.854;174.870;2023-03-02T00:00:31;3.20;;;3.20;;
19643;SDS011;9970;-36.854;174.870;2023-03-02T00:03:04;3.00;;;3.00;;
19643;SDS011;9970;-36.854;174.870;2023-03-02T00:05:37;2.87;;;2.87;;
19643;SDS011;9970;-36.854;174.870;2023-03-02T00:08:12;2.90;;;2.90;;
19643;SDS011;9970;-36.854;174.870;2023-03-02T00:10:49;2.90;;;2.90;;
19643;SDS011;9970;-36.854;174.870;2023-03-02T00:13:23;2.90;;;2.90;;
19643;SDS011;9970;-36.854;174.870;2023-03-02T00:15:55;2.80;;;2.80;;
19643;SDS011;9970;-36.854;174.870;2023-03-02T00:18:29;2.87;;;2.87;;
19643;SDS011;9970;-36.854;174.870;2023-03-02T00:21:02;2.60;;;2.60;;
19643;SDS011;9970;-36.854;174.870;2023-03-02T00:23:36;2.50;;;2.50;;
19643;SDS011;9970;-36.854;174.870;2023-03-02T00:26:09;2.50;;;2.50;;
19643;SDS011;9970;-36.854;174.870;2023-03-02T00:28:42;2.60;;;2.60;;
19643;SDS011;9970;-36.854;174.870;2023-03-02T00:31:20;2.40;;;2.40;;
19643;SDS011;9970;-36.854;174.870;2023-03-02T00:33:53;2.50;;;2.50;;
19643;SDS011;9970;-36.854;174.870;2023-03-02T00:36:26;2.40;;;2.40;;
19643;SDS011;9970;-36.854;174.870;2023-03-02T00:38:58;2.33;;;2.33;;
19643;SDS011;9970;-36.854;174.870;2023-03-02T00:41:32;2.50;;;2.50;;
19643;SDS011;9970;-36.854;174.870;2023-03-02T00:44:06;2.47;;;2.47;;
19643;SDS011;9970;-36.854;174.870;2023-03-02T00:46:40;2.40;;;2.40;;
19643;SDS011;9970;-36.854;174.870;2023-03-02T00:49:13;2.40;;;2.40;;
19643;SDS011;9970;-36.854;174.870;2023-03-02T00:51:46;2.50;;;2.50;;
19643;SDS011;9970;-36.854;174.870;2023-03-02T00:54:19;2.33;;;2.33;;
19643;SDS011;9970;-36.854;174.870;2023-03-02T00:56:52;2.60;;;2.60;;
19643;SDS011;9970;-36.854;174.870;2023-03-02T00:59:24;2.60;;;2.60;;
19643;SDS011;9970;-36.854;174.870;2023-03-02T01:01:58;2.57;;;2.57;;
19643;SDS011;9970;-36.854;174.870;2023-03-02T01:04:37;2.60;;;2.60;;
19643;SDS011;9970;-36.854;174.870;2023-03-02T01:07:07;2.40;;;2.40;;
19643;SDS011;9970;-36.854;174.870;2023-03-02T01:09:41;2.50;;;2.50;;
19643;SDS011;9970;-36.854;174.870;2023-03-02T01:12:14;2.40;;;2.40;;
19643;SDS011;9970;-36.854;174.870;2023-03-02T01:14:48;2.50;;;2.50;;
19643;SDS011;9970;-36.854;174.870;2023-03-02T01:17:21;2.47;;;2.47;;
19643;SDS011;9970;-36.854;174.870;2023-03-02T01:19:54;2.40;;;2.40;;
19643;SDS011;9970;-36.854;174.870;2023-03-02T01:22:27;2.30;;;2.30;;
19643;SDS011;9970;-36.854;174.870;2023-03-02T01:25:00;2.37;;;2.37;;
19643;SDS011;9970;-36.854;174.870;2023-03-02T01:27:33;2.20;;;2.20;;
19643;SDS011;9970;-36.854;174.870;2023-03-02T01:30:06;2.50;;;2.50;;
19643;SDS011;9970;-36.854;174.870;2023-03-02T01:32:41;2.40;;;2.40;;
19643;SDS011;9970;-36.854;174.870;2023-03-02T01:35:14;2.60;;;2.60;;
19643;SDS011;9970;-36.854;174.870;2023-03-02T01:37:48;2.40;;;2.40;;
19643;SDS011;9970;-36.854;174.870;2023-03-02T01:40:21;2.50;;;2.50;;
19643;SDS011;9970;-36.854;174.870;2023-03-02T01:42:56;2.50;;;2.50;;
19643;SDS011;9970;-36.854;174.870;2023-03-02T01:45:42;2.70;;;2.70;;
19643;SDS011;9970;-36.854;174.870;2023-03-02T01:48:15;2.60;;;2.60;;
19643;SDS011;9970;-36.854;174.870;2023-03-02T01:50:56;2.60;;;2.60;;
19643;SDS011;9970;-36.854;174.870;2023-03-02T01:53:31;2.60;;;2.60;;
19643;SDS011;9970;-36.854;174.870;2023-03-02T01:56:05;2.70;;;2.70;;
19643;SDS011;9970;-36.854;174.870;2023-03-02T01:58:38;2.73;;;2.73;;
19643;SDS011;9970;-36.854;174.870;2023-03-02T02:01:14;2.70;;;2.70;;
19643;SDS011;9970;-36.854;174.870;2023-03-02T02:03:48;2.70;;;2.70;;
19643;SDS011;9970;-36.854;174.870;2023-03-02T02:06:40;2.70;;;2.70;;
19643;SDS011;9970;-36.854;174.870;2023-03-02T02:09:14;2.67;;;2.67;;
19643;SDS011;9970;-36.854;174.870;2023-03-02T02:11:49;2.57;;;2.57;;
19643;SDS011;9970;-36.854;174.870;2023-03-02T02:14:22;2.60;;;2.60;;
19643;SDS011;9970;-36.854;174.870;2023-03-02T02:16:55;2.40;;;2.40;;
19643;SDS011;9970;-36.854;174.870;2023-03-02T02:25:10;2.70;;;2.70;;
19643;SDS011;9970;-36.854;174.870;2023-03-02T02:27:45;2.50;;;2.50;;
19643;SDS011;9970;-36.854;174.870;2023-03-02T02:30:18;2.40;;;2.40;;
19643;SDS011;9970;-36.854;174.870;2023-03-02T02:32:54;2.40;;;2.40;;
19643;SDS011;9970;-36.854;174.870;2023-03-02T02:35:28;2.30;;;2.30;;
19643;SDS011;9970;-36.854;174.870;2023-03-02T02:38:03;2.50;;;2.50;;
19643;SDS011;9970;-36.854;174.870;2023-03-02T02:40:44;2.40;;;2.40;;
19643;SDS011;9970;-36.854;174.870;2023-03-02T02:43:13;2.33;;;2.33;;
19643;SDS011;9970;-36.854;174.870;2023-03-02T02:45:47;2.60;;;2.60;;
19643;SDS011;9970;-36.854;174.870;2023-03-02T02:48:25;2.60;;;2.60;;
19643;SDS011;9970;-36.854;174.870;2023-03-02T02:50:59;2.60;;;2.60;;
19643;SDS011;9970;-36.854;174.870;2023-03-02T02:53:49;2.37;;;2.37;;
19643;SDS011;9970;-36.854;174.870;2023-03-02T02:56:35;2.50;;;2.50;;
19643;SDS011;9970;-36.854;174.870;2023-03-02T02:59:11;2.60;;;2.60;;
19643;SDS011;9970;-36.854;174.870;2023-03-02T03:01:39;2.50;;;2.50;;
19643;SDS011;9970;-36.854;174.870;2023-03-02T03:04:13;2.50;;;2.50;;
19643;SDS011;9970;-36.854;174.870;2023-03-02T03:06:51;2.50;;;2.50;;
19643;SDS011;9970;-36.854;174.870;2023-03-02T03:09:25;2.50;;;2.50;;
19643;SDS011;9970;-36.854;174.870;2023-03-02T03:12:07;2.50;;;2.50;;
19643;SDS011;9970;-36.854;174.870;2023-03-02T03:14:38;2.50;;;2.50;;
19643;SDS011;9970;-36.854;174.870;2023-03-02T03:17:11;2.60;;;2.60;;
19643;SDS011;9970;-36.854;174.870;2023-03-02T03:19:44;2.50;;;2.50;;
19643;SDS011;9970;-36.854;174.870;2023-03-02T03:22:17;2.60;;;2.60;;
19643;SDS011;9970;-36.854;174.870;2023-03-02T03:24:50;2.60;;;2.60;;
19643;SDS011;9970;-36.854;174.870;2023-03-02T03:27:26;2.60;;;2.60;;
19643;SDS011;9970;-36.854;174.870;2023-03-02T03:29:59;2.50;;;2.50;;
19643;SDS011;9970;-36.854;174.870;2023-03-02T03:32:32;2.50;;;2.50;;
19643;SDS011;9970;-36.854;174.870;2023-03-02T03:35:06;2.40;;;2.40;;
19643;SDS011;9970;-36.854;174.870;2023-03-02T03:37:44;2.50;;;2.50;;
19643;SDS011;9970;-36.854;174.870;2023-03-02T03:40:18;2.30;;;2.30;;
19643;SDS011;9970;-36.854;174.870;2023-03-02T03:42:51;2.50;;;2.50;;
19643;SDS011;9970;-36.854;174.870;2023-03-02T03:45:24;2.50;;;2.50;;
19643;SDS011;9970;-36.854;174.870;2023-03-02T03:47:58;2.50;;;2.50;;
19643;SDS011;9970;-36.854;174.870;2023-03-02T03:50:31;2.60;;;2.60;;
19643;SDS011;9970;-36.854;174.870;2023-03-02T03:53:04;2.60;;;2.60;;
19643;SDS011;9970;-36.854;174.870;2023-03-02T03:55:40;2.50;;;2.50;;
19643;SDS011;9970;-36.854;174.870;2023-03-02T03:58:12;2.50;;;2.50;;
19643;SDS011;9970;-36.854;174.870;2023-03-02T04:00:46;2.60;;;2.60;;
19643;SDS011;9970;-36.854;174.870;2023-03-02T04:03:19;2.60;;;2.60;;
19643;SDS011;9970;-36.854;174.870;2023-03-02T04:05:52;2.60;;;2.60;;
19643;SDS011;9970;-36.854;174.870;2023-03-02T04:08:25;2.67;;;2.67;;
19643;SDS011;9970;-36.854;174.870;2023-03-02T04:10:57;2.60;;;2.60;;
19643;SDS011;9970;-36.854;174.870;2023-03-02T04:13:30;2.50;;;2.50;;
19643;SDS011;9970;-36.854;174.870;2023-03-02T04:16:04;2.60;;;2.60;;
19643;SDS011;9970;-36.854;174.870;2023-03-02T04:18:41;2.70;;;2.70;;
19643;SDS011;9970;-36.854;174.870;2023-03-02T04:21:14;2.60;;;2.60;;
19643;SDS011;9970;-36.854;174.870;2023-03-02T04:23:47;2.60;;;2.60;;
19643;SDS011;9970;-36.854;174.870;2023-03-02T04:26:20;2.50;;;2.50;;
19643;SDS011;9970;-36.854;174.870;2023-03-02T04:28:54;2.30;;;2.30;;
19643;SDS011;9970;-36.854;174.870;2023-03-02T04:31:27;2.20;;;2.20;;
19643;SDS011;9970;-36.854;174.870;2023-03-02T04:34:01;2.10;;;2.10;;
19643;SDS011;9970;-36.854;174.870;2023-03-02T04:36:35;2.30;;;2.30;;
19643;SDS011;9970;-36.854;174.870;2023-03-02T04:39:09;2.40;;;2.40;;
19643;SDS011;9970;-36.854;174.870;2023-03-02T04:41:43;2.40;;;2.40;;
19643;SDS011;9970;-36.854;174.870;2023-03-02T04:44:17;2.20;;;2.20;;
19643;SDS011;9970;-36.854;174.870;2023-03-02T04:46:49;2.33;;;2.33;;
19643;SDS011;9970;-36.854;174.870;2023-03-02T04:49:23;2.40;;;2.40;;
19643;SDS011;9970;-36.854;174.870;2023-03-02T04:51:55;2.20;;;2.20;;
19643;SDS011;9970;-36.854;174.870;2023-03-02T04:54:28;2.20;;;2.20;;
19643;SDS011;9970;-36.854;174.870;2023-03-02T04:57:01;2.30;;;2.30;;
19643;SDS011;9970;-36.854;174.870;2023-03-02T04:59:34;2.23;;;2.23;;
19643;SDS011;9970;-36.854;174.870;2023-03-02T05:02:07;2.37;;;2.37;;
19643;SDS011;9970;-36.854;174.870;2023-03-02T05:04:40;2.20;;;2.20;;
19643;SDS011;9970;-36.854;174.870;2023-03-02T05:07:13;2.20;;;2.20;;
19643;SDS011;9970;-36.854;174.870;2023-03-02T05:09:46;2.40;;;2.40;;
19643;SDS011;9970;-36.854;174.870;2023-03-02T05:12:18;2.40;;;2.40;;
19643;SDS011;9970;-36.854;174.870;2023-03-02T05:14:51;2.30;;;2.30;;
19643;SDS011;9970;-36.854;174.870;2023-03-02T05:17:24;2.23;;;2.23;;
19643;SDS011;9970;-36.854;174.870;2023-03-02T05:19:57;2.20;;;2.20;;
19643;SDS011;9970;-36.854;174.870;2023-03-02T05:22:30;2.40;;;2.40;;
19643;SDS011;9970;-36.854;174.870;2023-03-02T05:25:03;2.53;;;2.53;;
19643;SDS011;9970;-36.854;174.870;2023-03-02T05:27:36;2.50;;;2.50;;
19643;SDS011;9970;-36.854;174.870;2023-03-02T05:30:10;2.60;;;2.60;;
19643;SDS011;9970;-36.854;174.870;2023-03-02T05:32:43;2.47;;;2.47;;
19643;SDS011;9970;-36.854;174.870;2023-03-02T05:35:16;2.37;;;2.37;;
19643;SDS011;9970;-36.854;174.870;2023-03-02T05:37:51;2.40;;;2.40;;
19643;SDS011;9970;-36.854;174.870;2023-03-02T05:40:24;2.50;;;2.50;;
19643;SDS011;9970;-36.854;174.870;2023-03-02T05:42:57;2.30;;;2.30;;
19643;SDS011;9970;-36.854;174.870;2023-03-02T05:45:34;2.30;;;2.30;;
19643;SDS011;9970;-36.854;174.870;2023-03-02T05:48:07;2.30;;;2.30;;
19643;SDS011;9970;-36.854;174.870;2023-03-02T05:50:43;2.40;;;2.40;;
19643;SDS011;9970;-36.854;174.870;2023-03-02T05:53:15;2.40;;;2.40;;
19643;SDS011;9970;-36.854;174.870;2023-03-02T05:55:52;2.50;;;2.50;;
19643;SDS011;9970;-36.854;174.870;2023-03-02T05:58:25;2.60;;;2.60;;
19643;SDS011;9970;-36.854;174.870;2023-03-02T06:00:58;2.50;;;2.50;;
19643;SDS011;9970;-36.854;174.870;2023-03-02T06:03:31;2.60;;;2.60;;
19643;SDS011;9970;-36.854;174.870;2023-03-02T06:06:03;2.40;;;2.40;;
19643;SDS011;9970;-36.854;174.870;2023-03-02T06:08:36;2.50;;;2.50;;
19643;SDS011;9970;-36.854;174.870;2023-03-02T06:11:09;2.60;;;2.60;;
19643;SDS011;9970;-36.854;174.870;2023-03-02T06:13:45;2.30;;;2.30;;
19643;SDS011;9970;-36.854;174.870;2023-03-02T06:16:18;2.40;;;2.40;;
19643;SDS011;9970;-36.854;174.870;2023-03-02T06:18:51;2.50;;;2.50;;
19643;SDS011;9970;-36.854;174.870;2023-03-02T06:21:24;2.40;;;2.40;;
19643;SDS011;9970;-36.854;174.870;2023-03-02T06:23:56;2.10;;;2.10;;
19643;SDS011;9970;-36.854;174.870;2023-03-02T06:26:30;2.30;;;2.30;;
19643;SDS011;9970;-36.854;174.870;2023-03-02T06:29:03;2.30;;;2.30;;
19643;SDS011;9970;-36.854;174.870;2023-03-02T06:31:36;2.40;;;2.40;;
19643;SDS011;9970;-36.854;174.870;2023-03-02T06:34:09;2.40;;;2.40;;
19643;SDS011;9970;-36.854;174.870;2023-03-02T06:36:42;2.30;;;2.30;;
19643;SDS011;9970;-36.854;174.870;2023-03-02T06:39:15;2.33;;;2.33;;
19643;SDS011;9970;-36.854;174.870;2023-03-02T06:41:48;2.40;;;2.40;;
19643;SDS011;9970;-36.854;174.870;2023-03-02T06:44:21;2.40;;;2.40;;
19643;SDS011;9970;-36.854;174.870;2023-03-02T06:46:54;2.40;;;2.40;;
19643;SDS011;9970;-36.854;174.870;2023-03-02T06:49:27;2.60;;;2.60;;
19643;SDS011;9970;-36.854;174.870;2023-03-02T06:51:59;2.50;;;2.50;;
19643;SDS011;9970;-36.854;174.870;2023-03-02T06:54:32;2.50;;;2.50;;
19643;SDS011;9970;-36.854;174.870;2023-03-02T06:57:05;2.50;;;2.50;;
19643;SDS011;9970;-36.854;174.870;2023-03-02T06:59:38;2.60;;;2.60;;
19643;SDS011;9970;-36.854;174.870;2023-03-02T07:02:11;2.50;;;2.50;;
19643;SDS011;9970;-36.854;174.870;2023-03-02T07:04:44;2.60;;;2.60;;
19643;SDS011;9970;-36.854;174.870;2023-03-02T07:07:17;2.60;;;2.60;;
19643;SDS011;9970;-36.854;174.870;2023-03-02T07:09:49;2.60;;;2.60;;
19643;SDS011;9970;-36.854;174.870;2023-03-02T07:12:22;2.90;;;2.90;;
19643;SDS011;9970;-36.854;174.870;2023-03-02T07:14:55;2.70;;;2.70;;
19643;SDS011;9970;-36.854;174.870;2023-03-02T07:17:28;2.63;;;2.63;;
19643;SDS011;9970;-36.854;174.870;2023-03-02T07:20:01;2.90;;;2.90;;
19643;SDS011;9970;-36.854;174.870;2023-03-02T07:22:34;2.87;;;2.87;;
19643;SDS011;9970;-36.854;174.870;2023-03-02T07:25:07;2.83;;;2.83;;
19643;SDS011;9970;-36.854;174.870;2023-03-02T07:27:41;2.80;;;2.80;;
19643;SDS011;9970;-36.854;174.870;2023-03-02T07:30:14;2.80;;;2.80;;
19643;SDS011;9970;-36.854;174.870;2023-03-02T07:32:50;2.60;;;2.60;;
19643;SDS011;9970;-36.854;174.870;2023-03-02T07:35:23;2.60;;;2.60;;
19643;SDS011;9970;-36.854;174.870;2023-03-02T07:37:56;2.70;;;2.70;;
19643;SDS011;9970;-36.854;174.870;2023-03-02T07:40:29;2.70;;;2.70;;
19643;SDS011;9970;-36.854;174.870;2023-03-02T07:43:02;2.73;;;2.73;;
19643;SDS011;9970;-36.854;174.870;2023-03-02T07:45:36;2.77;;;2.77;;
19643;SDS011;9970;-36.854;174.870;2023-03-02T07:48:09;2.60;;;2.60;;
19643;SDS011;9970;-36.854;174.870;2023-03-02T07:50:42;2.70;;;2.70;;
19643;SDS011;9970;-36.854;174.870;2023-03-02T07:53:15;2.60;;;2.60;;
19643;SDS011;9970;-36.854;174.870;2023-03-02T07:55:47;2.60;;;2.60;;
19643;SDS011;9970;-36.854;174.870;2023-03-02T07:58:21;2.70;;;2.70;;
19643;SDS011;9970;-36.854;174.870;2023-03-02T08:00:54;2.70;;;2.70;;
19643;SDS011;9970;-36.854;174.870;2023-03-02T08:03:32;2.63;;;2.63;;
19643;SDS011;9970;-36.854;174.870;2023-03-02T08:06:05;2.70;;;2.70;;
19643;SDS011;9970;-36.854;174.870;2023-03-02T08:08:40;2.70;;;2.70;;
19643;SDS011;9970;-36.854;174.870;2023-03-02T08:11:13;2.73;;;2.73;;
19643;SDS011;9970;-36.854;174.870;2023-03-02T08:13:47;3.00;;;3.00;;
19643;SDS011;9970;-36.854;174.870;2023-03-02T08:16:20;2.80;;;2.80;;
19643;SDS011;9970;-36.854;174.870;2023-03-02T08:18:54;2.70;;;2.70;;
19643;SDS011;9970;-36.854;174.870;2023-03-02T08:21:27;2.80;;;2.80;;
19643;SDS011;9970;-36.854;174.870;2023-03-02T08:24:02;2.80;;;2.80;;
19643;SDS011;9970;-36.854;174.870;2023-03-02T08:26:35;3.10;;;3.10;;
19643;SDS011;9970;-36.854;174.870;2023-03-02T08:29:08;3.10;;;3.10;;
19643;SDS011;9970;-36.854;174.870;2023-03-02T08:31:43;2.93;;;2.93;;
19643;SDS011;9970;-36.854;174.870;2023-03-02T08:34:16;2.60;;;2.60;;
19643;SDS011;9970;-36.854;174.870;2023-03-02T08:36:49;2.60;;;2.60;;
19643;SDS011;9970;-36.854;174.870;2023-03-02T08:39:23;2.50;;;2.50;;
19643;SDS011;9970;-36.854;174.870;2023-03-02T08:41:57;2.50;;;2.50;;
19643;SDS011;9970;-36.854;174.870;2023-03-02T08:44:30;2.50;;;2.50;;
19643;SDS011;9970;-36.854;174.870;2023-03-02T08:47:03;2.30;;;2.30;;
19643;SDS011;9970;-36.854;174.870;2023-03-02T08:49:36;2.30;;;2.30;;
19643;SDS011;9970;-36.854;174.870;2023-03-02T08:52:09;2.50;;;2.50;;
19643;SDS011;9970;-36.854;174.870;2023-03-02T08:54:43;2.50;;;2.50;;
19643;SDS011;9970;-36.854;174.870;2023-03-02T08:57:16;2.50;;;2.50;;
19643;SDS011;9970;-36.854;174.870;2023-03-02T08:59:48;2.63;;;2.63;;
19643;SDS011;9970;-36.854;174.870;2023-03-02T09:02:21;2.57;;;2.57;;
19643;SDS011;9970;-36.854;174.870;2023-03-02T09:04:54;2.70;;;2.70;;
19643;SDS011;9970;-36.854;174.870;2023-03-02T09:07:27;2.60;;;2.60;;
19643;SDS011;9970;-36.854;174.870;2023-03-02T09:10:00;2.60;;;2.60;;
19643;SDS011;9970;-36.854;174.870;2023-03-02T09:12:33;2.73;;;2.73;;
19643;SDS011;9970;-36.854;174.870;2023-03-02T09:15:07;2.83;;;2.83;;
19643;SDS011;9970;-36.854;174.870;2023-03-02T09:17:42;2.60;;;2.60;;
19643;SDS011;9970;-36.854;174.870;2023-03-02T09:20:16;2.67;;;2.67;;
19643;SDS011;9970;-36.854;174.870;2023-03-02T09:22:49;2.60;;;2.60;;
19643;SDS011;9970;-36.854;174.870;2023-03-02T09:25:22;2.60;;;2.60;;
19643;SDS011;9970;-36.854;174.870;2023-03-02T09:27:55;2.60;;;2.60;;
19643;SDS011;9970;-36.854;174.870;2023-03-02T09:30:28;2.90;;;2.90;;
19643;SDS011;9970;-36.854;174.870;2023-03-02T09:33:01;3.00;;;3.00;;
19643;SDS011;9970;-36.854;174.870;2023-03-02T09:35:34;3.00;;;3.00;;
19643;SDS011;9970;-36.854;174.870;2023-03-02T09:38:08;2.90;;;2.90;;
19643;SDS011;9970;-36.854;174.870;2023-03-02T09:46:32;2.90;;;2.90;;
19643;SDS011;9970;-36.854;174.870;2023-03-02T09:52:15;2.90;;;2.90;;
19643;SDS011;9970;-36.854;174.870;2023-03-02T09:55:22;2.80;;;2.80;;
19643;SDS011;9970;-36.854;174.870;2023-03-02T09:57:43;2.70;;;2.70;;
19643;SDS011;9970;-36.854;174.870;2023-03-02T10:00:30;3.00;;;3.00;;
19643;SDS011;9970;-36.854;174.870;2023-03-02T10:03:04;3.00;;;3.00;;
19643;SDS011;9970;-36.854;174.870;2023-03-02T10:05:40;3.00;;;3.00;;
19643;SDS011;9970;-36.854;174.870;2023-03-02T10:08:26;3.00;;;3.00;;
19643;SDS011;9970;-36.854;174.870;2023-03-02T10:16:53;3.00;;;3.00;;
19643;SDS011;9970;-36.854;174.870;2023-03-02T10:22:15;3.10;;;3.10;;
19643;SDS011;9970;-36.854;174.870;2023-03-02T10:24:50;3.00;;;3.00;;
19643;SDS011;9970;-36.854;174.870;2023-03-02T10:27:45;3.00;;;3.00;;
19643;SDS011;9970;-36.854;174.870;2023-03-02T10:30:30;3.00;;;3.00;;
19643;SDS011;9970;-36.854;174.870;2023-03-02T10:33:18;3.00;;;3.00;;
19643;SDS011;9970;-36.854;174.870;2023-03-02T10:35:49;3.03;;;3.03;;
19643;SDS011;9970;-36.854;174.870;2023-03-02T10:38:23;3.13;;;3.13;;
19643;SDS011;9970;-36.854;174.870;2023-03-02T10:41:02;3.30;;;3.30;;
19643;SDS011;9970;-36.854;174.870;2023-03-02T10:43:36;3.20;;;3.20;;
19643;SDS011;9970;-36.854;174.870;2023-03-02T10:46:16;2.90;;;2.90;;
19643;SDS011;9970;-36.854;174.870;2023-03-02T10:48:51;3.20;;;3.20;;
19643;SDS011;9970;-36.854;174.870;2023-03-02T10:51:29;3.10;;;3.10;;
19643;SDS011;9970;-36.854;174.870;2023-03-02T10:56:42;3.00;;;3.00;;
19643;SDS011;9970;-36.854;174.870;2023-03-02T11:02:17;3.00;;;3.00;;
19643;SDS011;9970;-36.854;174.870;2023-03-02T11:05:12;3.00;;;3.00;;
19643;SDS011;9970;-36.854;174.870;2023-03-02T11:07:32;3.10;;;3.10;;
19643;SDS011;9970;-36.854;174.870;2023-03-02T11:10:17;3.10;;;3.10;;
19643;SDS011;9970;-36.854;174.870;2023-03-02T11:12:52;3.20;;;3.20;;
19643;SDS011;9970;-36.854;174.870;2023-03-02T11:15:26;3.20;;;3.20;;
19643;SDS011;9970;-36.854;174.870;2023-03-02T11:18:00;3.00;;;3.00;;
19643;SDS011;9970;-36.854;174.870;2023-03-02T11:20:44;3.20;;;3.20;;
19643;SDS011;9970;-36.854;174.870;2023-03-02T11:26:08;3.00;;;3.00;;
19643;SDS011;9970;-36.854;174.870;2023-03-02T11:31:25;3.20;;;3.20;;
19643;SDS011;9970;-36.854;174.870;2023-03-02T11:34:30;3.30;;;3.30;;
19643;SDS011;9970;-36.854;174.870;2023-03-02T11:37:15;3.10;;;3.10;;
19643;SDS011;9970;-36.854;174.870;2023-03-02T11:39:59;3.10;;;3.10;;
19643;SDS011;9970;-36.854;174.870;2023-03-02T11:42:43;3.10;;;3.10;;
19643;SDS011;9970;-36.854;174.870;2023-03-02T11:47:55;3.20;;;3.20;;
19643;SDS011;9970;-36.854;174.870;2023-03-02T11:50:44;3.20;;;3.20;;
19643;SDS011;9970;-36.854;174.870;2023-03-02T11:53:44;3.10;;;3.10;;
19643;SDS011;9970;-36.854;174.870;2023-03-02T11:56:18;3.03;;;3.03;;
19643;SDS011;9970;-36.854;174.870;2023-03-02T11:58:58;3.00;;;3.00;;
19643;SDS011;9970;-36.854;174.870;2023-03-02T12:01:33;3.20;;;3.20;;
19643;SDS011;9970;-36.854;174.870;2023-03-02T12:04:09;3.10;;;3.10;;
19643;SDS011;9970;-36.854;174.870;2023-03-02T12:06:43;3.30;;;3.30;;
19643;SDS011;9970;-36.854;174.870;2023-03-02T12:12:14;3.10;;;3.10;;
19643;SDS011;9970;-36.854;174.870;2023-03-02T12:14:50;3.20;;;3.20;;
19643;SDS011;9970;-36.854;174.870;2023-03-02T12:22:41;3.20;;;3.20;;
19643;SDS011;9970;-36.854;174.870;2023-03-02T12:27:58;3.47;;;3.47;;
19643;SDS011;9970;-36.854;174.870;2023-03-02T12:30:32;2.90;;;2.90;;
19643;SDS011;9970;-36.854;174.870;2023-03-02T12:35:46;3.00;;;3.00;;
19643;SDS011;9970;-36.854;174.870;2023-03-02T12:38:23;2.80;;;2.80;;
19643;SDS011;9970;-36.854;174.870;2023-03-02T12:41:08;2.90;;;2.90;;
19643;SDS011;9970;-36.854;174.870;2023-03-02T12:46:59;3.10;;;3.10;;
19643;SDS011;9970;-36.854;174.870;2023-03-02T12:49:33;3.10;;;3.10;;
19643;SDS011;9970;-36.854;174.870;2023-03-02T12:52:19;3.40;;;3.40;;
19643;SDS011;9970;-36.854;174.870;2023-03-02T12:55:14;3.47;;;3.47;;
19643;SDS011;9970;-36.854;174.870;2023-03-02T12:57:48;3.40;;;3.40;;
19643;SDS011;9970;-36.854;174.870;2023-03-02T13:00:23;3.40;;;3.40;;
19643;SDS011;9970;-36.854;174.870;2023-03-02T13:02:59;3.20;;;3.20;;
19643;SDS011;9970;-36.854;174.870;2023-03-02T13:05:33;3.40;;;3.40;;
19643;SDS011;9970;-36.854;174.870;2023-03-02T13:08:14;3.70;;;3.70;;
19643;SDS011;9970;-36.854;174.870;2023-03-02T13:10:48;3.33;;;3.33;;
19643;SDS011;9970;-36.854;174.870;2023-03-02T13:16:25;3.40;;;3.40;;
19643;SDS011;9970;-36.854;174.870;2023-03-02T13:19:02;3.40;;;3.40;;
19643;SDS011;9970;-36.854;174.870;2023-03-02T13:21:37;3.27;;;3.27;;
19643;SDS011;9970;-36.854;174.870;2023-03-02T13:27:05;3.40;;;3.40;;
19643;SDS011;9970;-36.854;174.870;2023-03-02T13:29:40;3.40;;;3.40;;
19643;SDS011;9970;-36.854;174.870;2023-03-02T13:32:19;3.30;;;3.30;;
19643;SDS011;9970;-36.854;174.870;2023-03-02T13:34:59;3.53;;;3.53;;
19643;SDS011;9970;-36.854;174.870;2023-03-02T13:37:34;3.20;;;3.20;;
19643;SDS011;9970;-36.854;174.870;2023-03-02T13:43:02;3.20;;;3.20;;
19643;SDS011;9970;-36.854;174.870;2023-03-02T13:45:37;3.20;;;3.20;;
19643;SDS011;9970;-36.854;174.870;2023-03-02T13:48:13;3.00;;;3.00;;
19643;SDS011;9970;-36.854;174.870;2023-03-02T13:50:49;3.00;;;3.00;;
19643;SDS011;9970;-36.854;174.870;2023-03-02T13:53:31;3.00;;;3.00;;
19643;SDS011;9970;-36.854;174.870;2023-03-02T13:56:05;2.93;;;2.93;;
19643;SDS011;9970;-36.854;174.870;2023-03-02T13:58:40;3.23;;;3.23;;
19643;SDS011;9970;-36.854;174.870;2023-03-02T14:01:13;3.03;;;3.03;;
19643;SDS011;9970;-36.854;174.870;2023-03-02T14:03:46;2.90;;;2.90;;
19643;SDS011;9970;-36.854;174.870;2023-03-02T14:06:19;3.00;;;3.00;;
19643;SDS011;9970;-36.854;174.870;2023-03-02T14:08:56;3.10;;;3.10;;
19643;SDS011;9970;-36.854;174.870;2023-03-02T14:11:30;3.00;;;3.00;;
19643;SDS011;9970;-36.854;174.870;2023-03-02T14:14:04;3.10;;;3.10;;
19643;SDS011;9970;-36.854;174.870;2023-03-02T14:16:38;3.00;;;3.00;;
19643;SDS011;9970;-36.854;174.870;2023-03-02T14:19:14;3.10;;;3.10;;
19643;SDS011;9970;-36.854;174.870;2023-03-02T14:21:47;2.90;;;2.90;;
19643;SDS011;9970;-36.854;174.870;2023-03-02T14:24:20;3.00;;;3.00;;
19643;SDS011;9970;-36.854;174.870;2023-03-02T14:26:53;2.97;;;2.97;;
19643;SDS011;9970;-36.854;174.870;2023-03-02T14:29:31;3.07;;;3.07;;
19643;SDS011;9970;-36.854;174.870;2023-03-02T14:32:01;2.90;;;2.90;;
19643;SDS011;9970;-36.854;174.870;2023-03-02T14:34:36;3.00;;;3.00;;
19643;SDS011;9970;-36.854;174.870;2023-03-02T14:37:17;2.90;;;2.90;;
19643;SDS011;9970;-36.854;174.870;2023-03-02T14:39:50;2.90;;;2.90;;
19643;SDS011;9970;-36.854;174.870;2023-03-02T14:42:23;2.90;;;2.90;;
19643;SDS011;9970;-36.854;174.870;2023-03-02T14:44:57;2.90;;;2.90;;
19643;SDS011;9970;-36.854;174.870;2023-03-02T14:47:30;2.80;;;2.80;;
19643;SDS011;9970;-36.854;174.870;2023-03-02T14:50:04;2.60;;;2.60;;
19643;SDS011;9970;-36.854;174.870;2023-03-02T14:52:40;2.50;;;2.50;;
19643;SDS011;9970;-36.854;174.870;2023-03-02T14:55:16;2.50;;;2.50;;
19643;SDS011;9970;-36.854;174.870;2023-03-02T14:57:57;2.60;;;2.60;;
19643;SDS011;9970;-36.854;174.870;2023-03-02T15:00:31;2.70;;;2.70;;
19643;SDS011;9970;-36.854;174.870;2023-03-02T15:03:04;2.70;;;2.70;;
19643;SDS011;9970;-36.854;174.870;2023-03-02T15:05:37;2.80;;;2.80;;
19643;SDS011;9970;-36.854;174.870;2023-03-02T15:08:11;2.80;;;2.80;;
19643;SDS011;9970;-36.854;174.870;2023-03-02T15:10:45;2.80;;;2.80;;
19643;SDS011;9970;-36.854;174.870;2023-03-02T15:13:18;2.80;;;2.80;;
19643;SDS011;9970;-36.854;174.870;2023-03-02T15:15:51;2.60;;;2.60;;
19643;SDS011;9970;-36.854;174.870;2023-03-02T15:18:23;2.80;;;2.80;;
19643;SDS011;9970;-36.854;174.870;2023-03-02T15:20:57;2.70;;;2.70;;
19643;SDS011;9970;-36.854;174.870;2023-03-02T15:23:29;2.60;;;2.60;;
19643;SDS011;9970;-36.854;174.870;2023-03-02T15:26:03;2.70;;;2.70;;
19643;SDS011;9970;-36.854;174.870;2023-03-02T15:28:36;2.90;;;2.90;;
19643;SDS011;9970;-36.854;174.870;2023-03-02T15:31:10;2.80;;;2.80;;
19643;SDS011;9970;-36.854;174.870;2023-03-02T15:33:45;2.70;;;2.70;;
19643;SDS011;9970;-36.854;174.870;2023-03-02T15:36:19;2.60;;;2.60;;
19643;SDS011;9970;-36.854;174.870;2023-03-02T15:38:52;2.60;;;2.60;;
19643;SDS011;9970;-36.854;174.870;2023-03-02T15:41:25;2.57;;;2.57;;
19643;SDS011;9970;-36.854;174.870;2023-03-02T15:43:58;2.50;;;2.50;;
19643;SDS011;9970;-36.854;174.870;2023-03-02T15:46:32;2.60;;;2.60;;
19643;SDS011;9970;-36.854;174.870;2023-03-02T15:49:05;2.60;;;2.60;;
19643;SDS011;9970;-36.854;174.870;2023-03-02T15:51:37;2.60;;;2.60;;
19643;SDS011;9970;-36.854;174.870;2023-03-02T15:54:10;2.50;;;2.50;;
19643;SDS011;9970;-36.854;174.870;2023-03-02T15:56:43;2.43;;;2.43;;
19643;SDS011;9970;-36.854;174.870;2023-03-02T15:59:23;2.50;;;2.50;;
19643;SDS011;9970;-36.854;174.870;2023-03-02T16:01:52;2.50;;;2.50;;
19643;SDS011;9970;-36.854;174.870;2023-03-02T16:04:32;2.50;;;2.50;;
19643;SDS011;9970;-36.854;174.870;2023-03-02T16:07:05;2.60;;;2.60;;